sensor_id;sensor_type;location;lat;lon;timestamp;P1;durP1;ratioP1;P2;durP2;ratioP2
51485;SDS011;37565;51.352;6.412;2023-03-01T10:48:04;1.90;;;1.40;;
51485;SDS011;37565;51.352;6.412;2023-03-01T10:50:36;7.30;;;1.42;;
51485;SDS011;37565;51.352;6.412;2023-03-01T10:53:18;2.60;;;1.52;;
51485;SDS011;37565;51.352;6.412;2023-03-01T10:55:56;2.47;;;1.45;;
51485;SDS011;37565;51.352;6.412;2023-03-01T10:58:26;3.05;;;1.45;;
51485;SDS011;37565;51.352;6.412;2023-03-01T11:00:55;1.88;;;1.20;;
51485;SDS011;37565;51.352;6.412;2023-03-01T11:03:26;2.03;;;1.30;;
51485;SDS011;37565;51.352;6.412;2023-03-01T11:05:58;1.38;;;1.17;;
51485;SDS011;37565;51.352;6.412;2023-03-01T11:08:33;1.35;;;0.80;;
51485;SDS011;37565;51.352;6.412;2023-03-01T11:11:04;2.07;;;1.10;;
51485;SDS011;37565;51.352;6.412;2023-03-01T11:13:50;1.13;;;0.90;;
51485;SDS011;37565;51.352;6.412;2023-03-01T11:21:47;0.55;;;0.55;;
51485;SDS011;37565;51.352;6.412;2023-03-01T11:24:25;1.77;;;0.95;;
51485;SDS011;37565;51.352;6.412;2023-03-01T11:26:57;0.80;;;0.77;;
51485;SDS011;37565;51.352;6.412;2023-03-01T11:29:30;1.00;;;0.90;;
51485;SDS011;37565;51.352;6.412;2023-03-01T11:32:13;0.82;;;0.70;;
51485;SDS011;37565;51.352;6.412;2023-03-01T11:34:45;0.82;;;0.80;;
51485;SDS011;37565;51.352;6.412;2023-03-01T11:37:19;0.95;;;0.80;;
51485;SDS011;37565;51.352;6.412;2023-03-01T11:39:54;2.45;;;1.10;;
51485;SDS011;37565;51.352;6.412;2023-03-01T11:42:35;0.68;;;0.60;;
51485;SDS011;37565;51.352;6.412;2023-03-01T11:45:12;1.27;;;0.90;;
51485;SDS011;37565;51.352;6.412;2023-03-01T11:47:44;2.35;;;1.23;;
51485;SDS011;37565;51.352;6.412;2023-03-01T11:50:27;1.20;;;1.10;;
51485;SDS011;37565;51.352;6.412;2023-03-01T11:53:07;1.58;;;1.02;;
51485;SDS011;37565;51.352;6.412;2023-03-01T11:55:57;1.00;;;0.80;;
51485;SDS011;37565;51.352;6.412;2023-03-01T11:58:41;1.67;;;1.05;;
51485;SDS011;37565;51.352;6.412;2023-03-01T12:01:24;3.83;;;1.52;;
51485;SDS011;37565;51.352;6.412;2023-03-01T12:07:20;4.68;;;1.40;;
51485;SDS011;37565;51.352;6.412;2023-03-01T12:10:04;2.28;;;1.10;;
51485;SDS011;37565;51.352;6.412;2023-03-01T12:12:58;1.48;;;1.15;;
51485;SDS011;37565;51.352;6.412;2023-03-01T12:15:54;1.98;;;1.13;;
51485;SDS011;37565;51.352;6.412;2023-03-01T12:21:30;1.55;;;1.10;;
51485;SDS011;37565;51.352;6.412;2023-03-01T12:24:19;3.72;;;1.20;;
51485;SDS011;37565;51.352;6.412;2023-03-01T12:27:09;5.32;;;1.33;;
51485;SDS011;37565;51.352;6.412;2023-03-01T12:29:50;1.80;;;1.30;;
51485;SDS011;37565;51.352;6.412;2023-03-01T12:32:25;3.05;;;1.45;;
51485;SDS011;37565;51.352;6.412;2023-03-01T12:35:14;1.35;;;1.00;;
51485;SDS011;37565;51.352;6.412;2023-03-01T12:38:06;2.95;;;1.10;;
51485;SDS011;37565;51.352;6.412;2023-03-01T12:40:46;1.80;;;1.10;;
51485;SDS011;37565;51.352;6.412;2023-03-01T12:43:29;1.58;;;1.13;;
51485;SDS011;37565;51.352;6.412;2023-03-01T12:46:14;2.42;;;1.30;;
51485;SDS011;37565;51.352;6.412;2023-03-01T12:48:54;3.08;;;1.70;;
51485;SDS011;37565;51.352;6.412;2023-03-01T12:51:30;8.45;;;1.55;;
51485;SDS011;37565;51.352;6.412;2023-03-01T12:53:59;1.48;;;1.30;;
51485;SDS011;37565;51.352;6.412;2023-03-01T12:56:34;2.58;;;1.35;;
51485;SDS011;37565;51.352;6.412;2023-03-01T12:59:07;3.70;;;1.15;;
51485;SDS011;37565;51.352;6.412;2023-03-01T13:01:44;4.07;;;1.50;;
51485;SDS011;37565;51.352;6.412;2023-03-01T13:04:21;5.35;;;1.17;;
51485;SDS011;37565;51.352;6.412;2023-03-01T13:07:07;3.28;;;1.58;;
51485;SDS011;37565;51.352;6.412;2023-03-01T13:09:45;6.63;;;1.42;;
51485;SDS011;37565;51.352;6.412;2023-03-01T13:20:55;5.10;;;1.52;;
51485;SDS011;37565;51.352;6.412;2023-03-01T13:23:26;4.22;;;1.25;;
51485;SDS011;37565;51.352;6.412;2023-03-01T13:26:12;2.25;;;1.50;;
51485;SDS011;37565;51.352;6.412;2023-03-01T13:37:24;5.38;;;1.48;;
51485;SDS011;37565;51.352;6.412;2023-03-01T13:43:25;1.67;;;1.58;;
51485;SDS011;37565;51.352;6.412;2023-03-01T13:45:58;4.68;;;1.60;;
51485;SDS011;37565;51.352;6.412;2023-03-01T13:48:27;9.75;;;4.22;;
51485;SDS011;37565;51.352;6.412;2023-03-01T13:50:58;3.22;;;2.10;;
51485;SDS011;37565;51.352;6.412;2023-03-01T13:53:29;10.13;;;2.58;;
51485;SDS011;37565;51.352;6.412;2023-03-01T13:56:00;5.32;;;2.53;;
51485;SDS011;37565;51.352;6.412;2023-03-01T13:58:30;3.28;;;2.40;;
51485;SDS011;37565;51.352;6.412;2023-03-01T14:01:01;5.20;;;2.58;;
51485;SDS011;37565;51.352;6.412;2023-03-01T14:03:31;4.50;;;2.38;;
51485;SDS011;37565;51.352;6.412;2023-03-01T14:06:02;7.50;;;2.30;;
51485;SDS011;37565;51.352;6.412;2023-03-01T14:08:42;5.95;;;2.53;;
51485;SDS011;37565;51.352;6.412;2023-03-01T14:11:33;6.82;;;1.80;;
51485;SDS011;37565;51.352;6.412;2023-03-01T14:14:30;3.92;;;1.88;;
51485;SDS011;37565;51.352;6.412;2023-03-01T14:17:06;3.65;;;2.40;;
51485;SDS011;37565;51.352;6.412;2023-03-01T14:20:09;4.30;;;1.90;;
51485;SDS011;37565;51.352;6.412;2023-03-01T14:22:41;4.65;;;1.55;;
51485;SDS011;37565;51.352;6.412;2023-03-01T14:25:18;8.20;;;2.05;;
51485;SDS011;37565;51.352;6.412;2023-03-01T14:27:54;3.60;;;1.70;;
51485;SDS011;37565;51.352;6.412;2023-03-01T14:30:47;2.78;;;1.40;;
51485;SDS011;37565;51.352;6.412;2023-03-01T14:33:21;3.65;;;1.60;;
51485;SDS011;37565;51.352;6.412;2023-03-01T14:35:52;3.20;;;1.30;;
51485;SDS011;37565;51.352;6.412;2023-03-01T14:38:22;4.32;;;1.55;;
51485;SDS011;37565;51.352;6.412;2023-03-01T14:40:56;5.88;;;1.50;;
51485;SDS011;37565;51.352;6.412;2023-03-01T14:43:29;2.97;;;1.30;;
51485;SDS011;37565;51.352;6.412;2023-03-01T14:45:57;2.28;;;1.52;;
51485;SDS011;37565;51.352;6.412;2023-03-01T14:48:27;3.03;;;1.50;;
51485;SDS011;37565;51.352;6.412;2023-03-01T14:50:57;1.88;;;1.42;;
51485;SDS011;37565;51.352;6.412;2023-03-01T14:53:26;2.65;;;1.80;;
51485;SDS011;37565;51.352;6.412;2023-03-01T14:56:12;1.73;;;1.40;;
51485;SDS011;37565;51.352;6.412;2023-03-01T14:58:43;1.73;;;1.35;;
51485;SDS011;37565;51.352;6.412;2023-03-01T15:01:14;2.17;;;1.25;;
51485;SDS011;37565;51.352;6.412;2023-03-01T15:03:46;1.45;;;1.27;;
51485;SDS011;37565;51.352;6.412;2023-03-01T15:06:17;4.18;;;1.80;;
51485;SDS011;37565;51.352;6.412;2023-03-01T15:08:47;1.30;;;1.20;;
51485;SDS011;37565;51.352;6.412;2023-03-01T15:11:19;2.65;;;1.48;;
51485;SDS011;37565;51.352;6.412;2023-03-01T15:13:50;2.85;;;1.45;;
51485;SDS011;37565;51.352;6.412;2023-03-01T15:16:20;5.63;;;1.20;;
51485;SDS011;37565;51.352;6.412;2023-03-01T15:18:53;3.45;;;1.42;;
51485;SDS011;37565;51.352;6.412;2023-03-01T15:21:23;1.60;;;1.13;;
51485;SDS011;37565;51.352;6.412;2023-03-01T15:23:54;1.95;;;1.27;;
51485;SDS011;37565;51.352;6.412;2023-03-01T15:26:24;1.85;;;1.05;;
51485;SDS011;37565;51.352;6.412;2023-03-01T15:28:56;2.67;;;1.20;;
51485;SDS011;37565;51.352;6.412;2023-03-01T15:31:27;2.03;;;1.48;;
51485;SDS011;37565;51.352;6.412;2023-03-01T15:34:10;1.85;;;1.30;;
51485;SDS011;37565;51.352;6.412;2023-03-01T15:36:48;2.35;;;1.17;;
51485;SDS011;37565;51.352;6.412;2023-03-01T15:39:34;3.00;;;1.23;;
51485;SDS011;37565;51.352;6.412;2023-03-01T15:42:09;2.10;;;1.20;;
51485;SDS011;37565;51.352;6.412;2023-03-01T15:44:40;2.88;;;1.25;;
51485;SDS011;37565;51.352;6.412;2023-03-01T15:47:27;1.58;;;1.27;;
51485;SDS011;37565;51.352;6.412;2023-03-01T15:49:59;1.15;;;1.05;;
51485;SDS011;37565;51.352;6.412;2023-03-01T15:52:28;1.60;;;1.25;;
51485;SDS011;37565;51.352;6.412;2023-03-01T15:55:04;1.65;;;1.33;;
51485;SDS011;37565;51.352;6.412;2023-03-01T15:57:41;1.55;;;1.13;;
51485;SDS011;37565;51.352;6.412;2023-03-01T16:00:10;2.45;;;1.30;;
51485;SDS011;37565;51.352;6.412;2023-03-01T16:02:39;2.15;;;1.33;;
51485;SDS011;37565;51.352;6.412;2023-03-01T16:05:13;1.70;;;1.25;;
51485;SDS011;37565;51.352;6.412;2023-03-01T16:07:45;1.42;;;1.00;;
51485;SDS011;37565;51.352;6.412;2023-03-01T16:10:13;1.80;;;1.33;;
51485;SDS011;37565;51.352;6.412;2023-03-01T16:12:41;2.28;;;1.23;;
51485;SDS011;37565;51.352;6.412;2023-03-01T16:15:11;1.50;;;1.08;;
51485;SDS011;37565;51.352;6.412;2023-03-01T16:17:43;1.88;;;1.30;;
51485;SDS011;37565;51.352;6.412;2023-03-01T16:20:13;3.08;;;1.00;;
51485;SDS011;37565;51.352;6.412;2023-03-01T16:22:53;3.80;;;1.40;;
51485;SDS011;37565;51.352;6.412;2023-03-01T16:25:21;2.22;;;1.35;;
51485;SDS011;37565;51.352;6.412;2023-03-01T16:27:49;1.70;;;1.30;;
51485;SDS011;37565;51.352;6.412;2023-03-01T16:30:19;2.08;;;1.40;;
51485;SDS011;37565;51.352;6.412;2023-03-01T16:32:48;1.60;;;1.30;;
51485;SDS011;37565;51.352;6.412;2023-03-01T16:35:19;2.90;;;1.45;;
51485;SDS011;37565;51.352;6.412;2023-03-01T16:37:48;2.08;;;1.10;;
51485;SDS011;37565;51.352;6.412;2023-03-01T16:40:20;1.70;;;1.17;;
51485;SDS011;37565;51.352;6.412;2023-03-01T16:42:49;1.38;;;1.10;;
51485;SDS011;37565;51.352;6.412;2023-03-01T16:45:18;1.50;;;1.23;;
51485;SDS011;37565;51.352;6.412;2023-03-01T16:47:50;1.45;;;1.10;;
51485;SDS011;37565;51.352;6.412;2023-03-01T16:50:22;1.08;;;0.93;;
51485;SDS011;37565;51.352;6.412;2023-03-01T16:52:50;1.27;;;1.00;;
51485;SDS011;37565;51.352;6.412;2023-03-01T16:55:18;1.33;;;0.98;;
51485;SDS011;37565;51.352;6.412;2023-03-01T16:57:46;1.30;;;1.20;;
51485;SDS011;37565;51.352;6.412;2023-03-01T17:00:14;1.40;;;1.23;;
51485;SDS011;37565;51.352;6.412;2023-03-01T17:02:43;4.10;;;1.10;;
51485;SDS011;37565;51.352;6.412;2023-03-01T17:05:11;4.40;;;1.20;;
51485;SDS011;37565;51.352;6.412;2023-03-01T17:07:41;3.13;;;1.00;;
51485;SDS011;37565;51.352;6.412;2023-03-01T17:10:09;2.25;;;1.10;;
51485;SDS011;37565;51.352;6.412;2023-03-01T17:12:38;3.55;;;0.85;;
51485;SDS011;37565;51.352;6.412;2023-03-01T17:15:06;2.65;;;1.98;;
51485;SDS011;37565;51.352;6.412;2023-03-01T17:17:34;7.00;;;3.72;;
51485;SDS011;37565;51.352;6.412;2023-03-01T17:20:02;7.28;;;3.60;;
51485;SDS011;37565;51.352;6.412;2023-03-01T17:22:31;10.38;;;7.63;;
51485;SDS011;37565;51.352;6.412;2023-03-01T17:25:00;7.25;;;5.05;;
51485;SDS011;37565;51.352;6.412;2023-03-01T17:27:28;6.10;;;4.15;;
51485;SDS011;37565;51.352;6.412;2023-03-01T17:30:00;7.53;;;5.05;;
51485;SDS011;37565;51.352;6.412;2023-03-01T17:32:29;9.80;;;5.38;;
51485;SDS011;37565;51.352;6.412;2023-03-01T17:34:57;7.65;;;5.28;;
51485;SDS011;37565;51.352;6.412;2023-03-01T17:37:25;10.75;;;5.53;;
51485;SDS011;37565;51.352;6.412;2023-03-01T17:39:53;9.18;;;6.57;;
51485;SDS011;37565;51.352;6.412;2023-03-01T17:42:22;6.68;;;5.10;;
51485;SDS011;37565;51.352;6.412;2023-03-01T17:44:50;6.97;;;5.50;;
51485;SDS011;37565;51.352;6.412;2023-03-01T17:47:18;8.43;;;6.28;;
51485;SDS011;37565;51.352;6.412;2023-03-01T17:49:46;7.63;;;5.65;;
51485;SDS011;37565;51.352;6.412;2023-03-01T17:52:14;7.80;;;5.70;;
51485;SDS011;37565;51.352;6.412;2023-03-01T17:54:42;8.90;;;6.25;;
51485;SDS011;37565;51.352;6.412;2023-03-01T17:57:10;9.15;;;6.55;;
51485;SDS011;37565;51.352;6.412;2023-03-01T17:59:40;10.13;;;6.35;;
51485;SDS011;37565;51.352;6.412;2023-03-01T18:02:09;9.15;;;7.03;;
51485;SDS011;37565;51.352;6.412;2023-03-01T18:04:38;8.20;;;6.13;;
51485;SDS011;37565;51.352;6.412;2023-03-01T18:07:06;8.95;;;6.78;;
51485;SDS011;37565;51.352;6.412;2023-03-01T18:09:34;10.70;;;7.43;;
51485;SDS011;37565;51.352;6.412;2023-03-01T18:12:02;11.20;;;7.55;;
51485;SDS011;37565;51.352;6.412;2023-03-01T18:14:30;10.90;;;7.30;;
51485;SDS011;37565;51.352;6.412;2023-03-01T18:17:00;14.30;;;8.50;;
51485;SDS011;37565;51.352;6.412;2023-03-01T18:19:31;12.57;;;9.10;;
51485;SDS011;37565;51.352;6.412;2023-03-01T18:21:59;19.23;;;10.35;;
51485;SDS011;37565;51.352;6.412;2023-03-01T18:24:27;15.88;;;10.30;;
51485;SDS011;37565;51.352;6.412;2023-03-01T18:26:55;16.60;;;11.25;;
51485;SDS011;37565;51.352;6.412;2023-03-01T18:29:23;19.40;;;9.95;;
51485;SDS011;37565;51.352;6.412;2023-03-01T18:31:50;19.40;;;11.82;;
51485;SDS011;37565;51.352;6.412;2023-03-01T18:34:20;21.30;;;12.50;;
51485;SDS011;37565;51.352;6.412;2023-03-01T18:36:48;34.00;;;14.15;;
51485;SDS011;37565;51.352;6.412;2023-03-01T18:39:34;26.63;;;14.15;;
51485;SDS011;37565;51.352;6.412;2023-03-01T18:42:02;17.02;;;11.40;;
51485;SDS011;37565;51.352;6.412;2023-03-01T18:44:30;20.63;;;13.07;;
51485;SDS011;37565;51.352;6.412;2023-03-01T18:46:58;15.38;;;10.38;;
51485;SDS011;37565;51.352;6.412;2023-03-01T18:49:27;16.48;;;10.07;;
51485;SDS011;37565;51.352;6.412;2023-03-01T18:51:55;30.55;;;16.00;;
51485;SDS011;37565;51.352;6.412;2023-03-01T18:54:23;20.35;;;13.65;;
51485;SDS011;37565;51.352;6.412;2023-03-01T18:56:51;14.15;;;9.93;;
51485;SDS011;37565;51.352;6.412;2023-03-01T18:59:19;26.67;;;16.50;;
51485;SDS011;37565;51.352;6.412;2023-03-01T19:01:47;20.05;;;13.60;;
51485;SDS011;37565;51.352;6.412;2023-03-01T19:04:15;15.48;;;9.70;;
51485;SDS011;37565;51.352;6.412;2023-03-01T19:06:44;16.63;;;11.00;;
51485;SDS011;37565;51.352;6.412;2023-03-01T19:09:12;25.35;;;14.40;;
51485;SDS011;37565;51.352;6.412;2023-03-01T19:11:40;30.33;;;16.83;;
51485;SDS011;37565;51.352;6.412;2023-03-01T19:14:08;17.63;;;12.15;;
51485;SDS011;37565;51.352;6.412;2023-03-01T19:16:37;17.25;;;11.10;;
51485;SDS011;37565;51.352;6.412;2023-03-01T19:19:05;24.65;;;14.63;;
51485;SDS011;37565;51.352;6.412;2023-03-01T19:21:35;26.25;;;17.08;;
51485;SDS011;37565;51.352;6.412;2023-03-01T19:24:04;25.77;;;16.20;;
51485;SDS011;37565;51.352;6.412;2023-03-01T19:26:33;20.17;;;13.07;;
51485;SDS011;37565;51.352;6.412;2023-03-01T19:29:01;16.20;;;11.02;;
51485;SDS011;37565;51.352;6.412;2023-03-01T19:31:30;29.73;;;18.30;;
51485;SDS011;37565;51.352;6.412;2023-03-01T19:33:58;20.98;;;13.65;;
51485;SDS011;37565;51.352;6.412;2023-03-01T19:36:36;23.02;;;16.08;;
51485;SDS011;37565;51.352;6.412;2023-03-01T19:39:08;22.75;;;15.93;;
51485;SDS011;37565;51.352;6.412;2023-03-01T19:41:38;30.92;;;16.20;;
51485;SDS011;37565;51.352;6.412;2023-03-01T19:44:06;20.35;;;13.85;;
51485;SDS011;37565;51.352;6.412;2023-03-01T19:46:34;24.05;;;14.48;;
51485;SDS011;37565;51.352;6.412;2023-03-01T19:49:03;19.92;;;13.88;;
51485;SDS011;37565;51.352;6.412;2023-03-01T19:51:32;22.88;;;15.00;;
51485;SDS011;37565;51.352;6.412;2023-03-01T19:54:01;24.30;;;14.63;;
51485;SDS011;37565;51.352;6.412;2023-03-01T19:56:32;30.35;;;17.65;;
51485;SDS011;37565;51.352;6.412;2023-03-01T19:59:01;32.25;;;21.40;;
51485;SDS011;37565;51.352;6.412;2023-03-01T20:01:30;30.00;;;19.38;;
51485;SDS011;37565;51.352;6.412;2023-03-01T20:04:00;29.35;;;19.95;;
51485;SDS011;37565;51.352;6.412;2023-03-01T20:06:29;24.30;;;16.15;;
51485;SDS011;37565;51.352;6.412;2023-03-01T20:08:57;22.58;;;15.75;;
51485;SDS011;37565;51.352;6.412;2023-03-01T20:11:35;20.77;;;14.15;;
51485;SDS011;37565;51.352;6.412;2023-03-01T20:14:03;18.73;;;13.00;;
51485;SDS011;37565;51.352;6.412;2023-03-01T20:16:31;16.30;;;11.55;;
51485;SDS011;37565;51.352;6.412;2023-03-01T20:19:00;17.88;;;11.32;;
51485;SDS011;37565;51.352;6.412;2023-03-01T20:21:28;18.27;;;11.15;;
51485;SDS011;37565;51.352;6.412;2023-03-01T20:23:58;16.45;;;11.57;;
51485;SDS011;37565;51.352;6.412;2023-03-01T20:26:27;17.98;;;11.40;;
51485;SDS011;37565;51.352;6.412;2023-03-01T20:28:56;15.40;;;10.93;;
51485;SDS011;37565;51.352;6.412;2023-03-01T20:31:25;16.42;;;10.98;;
51485;SDS011;37565;51.352;6.412;2023-03-01T20:33:55;20.30;;;13.57;;
51485;SDS011;37565;51.352;6.412;2023-03-01T20:36:25;18.17;;;12.23;;
51485;SDS011;37565;51.352;6.412;2023-03-01T20:38:54;14.88;;;11.35;;
51485;SDS011;37565;51.352;6.412;2023-03-01T20:41:23;19.95;;;13.02;;
51485;SDS011;37565;51.352;6.412;2023-03-01T20:43:52;18.60;;;12.38;;
51485;SDS011;37565;51.352;6.412;2023-03-01T20:46:23;22.67;;;15.07;;
51485;SDS011;37565;51.352;6.412;2023-03-01T20:48:52;21.17;;;14.80;;
51485;SDS011;37565;51.352;6.412;2023-03-01T20:51:20;26.48;;;15.02;;
51485;SDS011;37565;51.352;6.412;2023-03-01T20:53:48;22.10;;;14.85;;
51485;SDS011;37565;51.352;6.412;2023-03-01T20:56:17;20.77;;;13.13;;
51485;SDS011;37565;51.352;6.412;2023-03-01T20:58:46;21.15;;;13.88;;
51485;SDS011;37565;51.352;6.412;2023-03-01T21:01:14;30.50;;;20.95;;
51485;SDS011;37565;51.352;6.412;2023-03-01T21:03:45;18.52;;;12.98;;
51485;SDS011;37565;51.352;6.412;2023-03-01T21:06:13;32.65;;;18.85;;
51485;SDS011;37565;51.352;6.412;2023-03-01T21:08:41;21.13;;;14.32;;
51485;SDS011;37565;51.352;6.412;2023-03-01T21:11:09;24.00;;;16.35;;
51485;SDS011;37565;51.352;6.412;2023-03-01T21:13:37;29.02;;;18.35;;
51485;SDS011;37565;51.352;6.412;2023-03-01T21:16:08;18.90;;;12.43;;
51485;SDS011;37565;51.352;6.412;2023-03-01T21:18:39;18.23;;;13.05;;
51485;SDS011;37565;51.352;6.412;2023-03-01T21:21:09;20.90;;;13.80;;
51485;SDS011;37565;51.352;6.412;2023-03-01T21:23:39;19.08;;;13.90;;
51485;SDS011;37565;51.352;6.412;2023-03-01T21:26:08;15.90;;;11.88;;
51485;SDS011;37565;51.352;6.412;2023-03-01T21:28:38;19.95;;;13.18;;
51485;SDS011;37565;51.352;6.412;2023-03-01T21:31:08;15.88;;;10.73;;
51485;SDS011;37565;51.352;6.412;2023-03-01T21:33:42;22.33;;;13.25;;
51485;SDS011;37565;51.352;6.412;2023-03-01T21:36:13;15.00;;;10.57;;
51485;SDS011;37565;51.352;6.412;2023-03-01T21:38:42;17.42;;;12.27;;
51485;SDS011;37565;51.352;6.412;2023-03-01T21:41:12;16.83;;;12.93;;
51485;SDS011;37565;51.352;6.412;2023-03-01T21:43:42;21.25;;;12.85;;
51485;SDS011;37565;51.352;6.412;2023-03-01T21:46:12;15.65;;;12.02;;
51485;SDS011;37565;51.352;6.412;2023-03-01T21:48:42;18.30;;;11.48;;
51485;SDS011;37565;51.352;6.412;2023-03-01T21:51:11;17.65;;;11.23;;
51485;SDS011;37565;51.352;6.412;2023-03-01T21:53:42;13.60;;;10.45;;
51485;SDS011;37565;51.352;6.412;2023-03-01T21:56:13;16.00;;;11.77;;
51485;SDS011;37565;51.352;6.412;2023-03-01T21:58:42;29.30;;;17.00;;
51485;SDS011;37565;51.352;6.412;2023-03-01T22:01:11;19.48;;;11.18;;
51485;SDS011;37565;51.352;6.412;2023-03-01T22:03:40;24.00;;;15.30;;
51485;SDS011;37565;51.352;6.412;2023-03-01T22:06:12;20.77;;;13.30;;
51485;SDS011;37565;51.352;6.412;2023-03-01T22:08:45;19.45;;;12.52;;
51485;SDS011;37565;51.352;6.412;2023-03-01T22:11:14;18.33;;;11.30;;
51485;SDS011;37565;51.352;6.412;2023-03-01T22:13:43;17.92;;;12.98;;
51485;SDS011;37565;51.352;6.412;2023-03-01T22:16:12;17.27;;;10.80;;
51485;SDS011;37565;51.352;6.412;2023-03-01T22:18:40;18.63;;;13.20;;
51485;SDS011;37565;51.352;6.412;2023-03-01T22:21:08;18.80;;;10.52;;
51485;SDS011;37565;51.352;6.412;2023-03-01T22:23:39;14.93;;;10.73;;
51485;SDS011;37565;51.352;6.412;2023-03-01T22:26:07;18.55;;;13.63;;
51485;SDS011;37565;51.352;6.412;2023-03-01T22:28:45;18.38;;;13.00;;
51485;SDS011;37565;51.352;6.412;2023-03-01T22:31:13;22.52;;;14.75;;
51485;SDS011;37565;51.352;6.412;2023-03-01T22:33:41;16.92;;;12.32;;
51485;SDS011;37565;51.352;6.412;2023-03-01T22:36:09;27.45;;;18.92;;
51485;SDS011;37565;51.352;6.412;2023-03-01T22:38:39;23.23;;;16.17;;
51485;SDS011;37565;51.352;6.412;2023-03-01T22:41:07;14.88;;;11.05;;
51485;SDS011;37565;51.352;6.412;2023-03-01T22:43:35;18.42;;;13.52;;
51485;SDS011;37565;51.352;6.412;2023-03-01T22:46:10;17.70;;;11.65;;
51485;SDS011;37565;51.352;6.412;2023-03-01T22:48:39;18.50;;;11.38;;
51485;SDS011;37565;51.352;6.412;2023-03-01T22:51:07;21.60;;;15.60;;
51485;SDS011;37565;51.352;6.412;2023-03-01T22:53:41;19.92;;;14.57;;
51485;SDS011;37565;51.352;6.412;2023-03-01T22:56:10;23.27;;;13.90;;
51485;SDS011;37565;51.352;6.412;2023-03-01T22:58:40;19.10;;;13.35;;
51485;SDS011;37565;51.352;6.412;2023-03-01T23:01:08;27.08;;;18.13;;
51485;SDS011;37565;51.352;6.412;2023-03-01T23:03:37;25.42;;;16.95;;
51485;SDS011;37565;51.352;6.412;2023-03-01T23:06:05;17.40;;;12.75;;
51485;SDS011;37565;51.352;6.412;2023-03-01T23:08:33;21.30;;;13.77;;
51485;SDS011;37565;51.352;6.412;2023-03-01T23:11:03;15.10;;;11.85;;
51485;SDS011;37565;51.352;6.412;2023-03-01T23:16:04;25.00;;;16.63;;
51485;SDS011;37565;51.352;6.412;2023-03-01T23:18:33;20.10;;;13.90;;
51485;SDS011;37565;51.352;6.412;2023-03-01T23:21:05;20.65;;;14.85;;
51485;SDS011;37565;51.352;6.412;2023-03-01T23:23:34;16.48;;;12.07;;
51485;SDS011;37565;51.352;6.412;2023-03-01T23:26:03;18.35;;;13.00;;
51485;SDS011;37565;51.352;6.412;2023-03-01T23:28:32;19.00;;;13.80;;
51485;SDS011;37565;51.352;6.412;2023-03-01T23:31:01;17.90;;;13.60;;
51485;SDS011;37565;51.352;6.412;2023-03-01T23:33:31;23.73;;;15.02;;
51485;SDS011;37565;51.352;6.412;2023-03-01T23:36:03;31.65;;;19.27;;
51485;SDS011;37565;51.352;6.412;2023-03-01T23:38:32;26.33;;;16.92;;
51485;SDS011;37565;51.352;6.412;2023-03-01T23:41:00;20.17;;;14.65;;
51485;SDS011;37565;51.352;6.412;2023-03-01T23:43:29;24.05;;;16.17;;
51485;SDS011;37565;51.352;6.412;2023-03-01T23:45:58;23.38;;;15.35;;
51485;SDS011;37565;51.352;6.412;2023-03-01T23:48:26;26.10;;;17.17;;
51485;SDS011;37565;51.352;6.412;2023-03-01T23:50:54;24.00;;;12.90;;
51485;SDS011;37565;51.352;6.412;2023-03-01T23:53:21;23.08;;;14.77;;
51485;SDS011;37565;51.352;6.412;2023-03-01T23:55:50;22.55;;;15.73;;
51485;SDS011;37565;51.352;6.412;2023-03-01T23:58:20;22.00;;;14.95;;
